sensor_id;sensor_type;location;lat;lon;timestamp;pressure;altitude;pressure_sealevel;temperature;humidity
36898;BME280;22827;53.108;-6.738;2024-02-23T00:00:27;96975.44;;;0.36;56.57
36898;BME280;22827;53.108;-6.738;2024-02-23T00:02:54;96982.83;;;0.87;56.64
36898;BME280;22827;53.108;-6.738;2024-02-23T00:05:21;96986.72;;;0.53;57.31
36898;BME280;22827;53.108;-6.738;2024-02-23T00:07:48;96983.32;;;0.81;57.99
36898;BME280;22827;53.108;-6.738;2024-02-23T00:10:15;96981.83;;;0.35;59.10
36898;BME280;22827;53.108;-6.738;2024-02-23T00:12:42;96971.92;;;1.14;58.21
36898;BME280;22827;53.108;-6.738;2024-02-23T00:15:09;96969.05;;;1.46;57.42
36898;BME280;22827;53.108;-6.738;2024-02-23T00:17:36;96971.86;;;1.37;56.89
36898;BME280;22827;53.108;-6.738;2024-02-23T00:20:04;96977.23;;;1.63;56.29
36898;BME280;22827;53.108;-6.738;2024-02-23T00:22:33;96981.00;;;1.46;56.74
36898;BME280;22827;53.108;-6.738;2024-02-23T00:25:00;96977.82;;;1.93;55.70
36898;BME280;22827;53.108;-6.738;2024-02-23T00:27:27;96977.01;;;1.75;56.55
36898;BME280;22827;53.108;-6.738;2024-02-23T00:29:54;96976.49;;;0.92;56.49
36898;BME280;22827;53.108;-6.738;2024-02-23T00:32:21;96980.38;;;0.47;57.50
36898;BME280;22827;53.108;-6.738;2024-02-23T00:34:49;96982.50;;;1.35;56.33
36898;BME280;22827;53.108;-6.738;2024-02-23T00:37:16;96986.85;;;0.94;55.49
36898;BME280;22827;53.108;-6.738;2024-02-23T00:39:43;96988.38;;;0.93;55.90
36898;BME280;22827;53.108;-6.738;2024-02-23T00:42:10;96990.49;;;1.21;55.77
36898;BME280;22827;53.108;-6.738;2024-02-23T00:44:37;96995.34;;;0.89;56.09
36898;BME280;22827;53.108;-6.738;2024-02-23T00:47:05;96989.92;;;0.46;56.99
36898;BME280;22827;53.108;-6.738;2024-02-23T00:49:32;96988.12;;;0.43;57.14
36898;BME280;22827;53.108;-6.738;2024-02-23T00:51:59;96989.86;;;-0.33;58.65
36898;BME280;22827;53.108;-6.738;2024-02-23T00:54:26;96986.89;;;-0.50;59.53
36898;BME280;22827;53.108;-6.738;2024-02-23T00:56:53;96985.68;;;-0.57;59.47
36898;BME280;22827;53.108;-6.738;2024-02-23T00:59:20;96982.78;;;-0.22;60.24
36898;BME280;22827;53.108;-6.738;2024-02-23T01:01:47;96987.70;;;-0.28;60.02
36898;BME280;22827;53.108;-6.738;2024-02-23T01:04:14;96995.17;;;-0.13;59.61
36898;BME280;22827;53.108;-6.738;2024-02-23T01:06:42;97001.89;;;-0.10;60.18
36898;BME280;22827;53.108;-6.738;2024-02-23T01:09:09;97005.79;;;-0.23;59.57
36898;BME280;22827;53.108;-6.738;2024-02-23T01:11:36;97007.91;;;-0.28;61.00
36898;BME280;22827;53.108;-6.738;2024-02-23T01:14:03;97004.27;;;0.01;60.17
36898;BME280;22827;53.108;-6.738;2024-02-23T01:16:30;97006.78;;;0.15;59.61
36898;BME280;22827;53.108;-6.738;2024-02-23T01:18:57;97005.21;;;-0.35;60.62
36898;BME280;22827;53.108;-6.738;2024-02-23T01:21:24;97003.23;;;-0.25;60.94
36898;BME280;22827;53.108;-6.738;2024-02-23T01:23:51;96998.41;;;0.81;59.48
36898;BME280;22827;53.108;-6.738;2024-02-23T01:26:18;96996.18;;;0.82;58.96
36898;BME280;22827;53.108;-6.738;2024-02-23T01:28:45;96999.10;;;0.85;59.70
36898;BME280;22827;53.108;-6.738;2024-02-23T01:31:12;96994.91;;;0.08;60.77
36898;BME280;22827;53.108;-6.738;2024-02-23T01:33:39;96997.60;;;0.59;60.94
36898;BME280;22827;53.108;-6.738;2024-02-23T01:36:07;96997.22;;;0.37;59.75
36898;BME280;22827;53.108;-6.738;2024-02-23T01:38:34;97000.86;;;-0.32;60.48
36898;BME280;22827;53.108;-6.738;2024-02-23T01:41:01;97000.19;;;-0.53;60.75
36898;BME280;22827;53.108;-6.738;2024-02-23T01:43:28;97004.40;;;-0.12;60.66
36898;BME280;22827;53.108;-6.738;2024-02-23T01:45:55;97009.59;;;0.04;60.65
36898;BME280;22827;53.108;-6.738;2024-02-23T01:48:23;97015.57;;;0.34;61.10
36898;BME280;22827;53.108;-6.738;2024-02-23T01:50:50;97007.48;;;0.05;60.87
36898;BME280;22827;53.108;-6.738;2024-02-23T01:53:18;97009.09;;;0.11;60.00
36898;BME280;22827;53.108;-6.738;2024-02-23T01:55:46;97008.93;;;0.22;60.28
36898;BME280;22827;53.108;-6.738;2024-02-23T01:58:15;97008.59;;;0.39;60.11
36898;BME280;22827;53.108;-6.738;2024-02-23T02:00:42;97005.46;;;0.40;59.53
36898;BME280;22827;53.108;-6.738;2024-02-23T02:03:09;97007.80;;;-0.29;60.31
36898;BME280;22827;53.108;-6.738;2024-02-23T02:05:36;97003.96;;;-0.05;60.69
36898;BME280;22827;53.108;-6.738;2024-02-23T02:08:04;96996.10;;;0.58;58.94
36898;BME280;22827;53.108;-6.738;2024-02-23T02:10:32;96998.97;;;-0.10;59.88
36898;BME280;22827;53.108;-6.738;2024-02-23T02:13:02;96997.78;;;1.02;59.96
36898;BME280;22827;53.108;-6.738;2024-02-23T02:15:29;96995.52;;;0.64;58.98
36898;BME280;22827;53.108;-6.738;2024-02-23T02:17:56;96998.53;;;0.75;59.07
36898;BME280;22827;53.108;-6.738;2024-02-23T02:20:25;97001.75;;;0.26;58.48
36898;BME280;22827;53.108;-6.738;2024-02-23T02:22:52;97006.27;;;0.93;58.57
36898;BME280;22827;53.108;-6.738;2024-02-23T02:25:19;97003.38;;;0.81;58.35
36898;BME280;22827;53.108;-6.738;2024-02-23T02:27:46;97008.55;;;0.53;58.18
36898;BME280;22827;53.108;-6.738;2024-02-23T02:30:13;97009.39;;;0.65;57.45
36898;BME280;22827;53.108;-6.738;2024-02-23T02:32:41;97008.17;;;0.71;59.14
36898;BME280;22827;53.108;-6.738;2024-02-23T02:35:11;97008.89;;;0.62;58.72
36898;BME280;22827;53.108;-6.738;2024-02-23T02:37:38;97013.06;;;0.66;58.01
36898;BME280;22827;53.108;-6.738;2024-02-23T02:40:07;97014.91;;;0.39;58.37
36898;BME280;22827;53.108;-6.738;2024-02-23T02:42:35;97017.37;;;0.72;58.78
36898;BME280;22827;53.108;-6.738;2024-02-23T02:45:02;97015.19;;;1.04;57.89
36898;BME280;22827;53.108;-6.738;2024-02-23T02:47:29;97021.24;;;1.24;58.05
36898;BME280;22827;53.108;-6.738;2024-02-23T02:49:56;97016.40;;;1.43;57.30
36898;BME280;22827;53.108;-6.738;2024-02-23T02:52:23;97013.97;;;0.93;56.93
36898;BME280;22827;53.108;-6.738;2024-02-23T02:54:50;97006.74;;;0.82;56.86
36898;BME280;22827;53.108;-6.738;2024-02-23T02:57:17;97002.70;;;1.16;56.46
36898;BME280;22827;53.108;-6.738;2024-02-23T02:59:44;96999.23;;;1.59;56.10
36898;BME280;22827;53.108;-6.738;2024-02-23T03:02:11;97002.69;;;1.61;55.95
36898;BME280;22827;53.108;-6.738;2024-02-23T03:04:38;97003.92;;;1.96;56.02
36898;BME280;22827;53.108;-6.738;2024-02-23T03:07:05;97010.82;;;1.12;55.87
36898;BME280;22827;53.108;-6.738;2024-02-23T03:09:32;97008.22;;;1.72;57.16
36898;BME280;22827;53.108;-6.738;2024-02-23T03:11:59;97005.45;;;1.32;55.82
36898;BME280;22827;53.108;-6.738;2024-02-23T03:14:26;97005.53;;;0.24;56.59
36898;BME280;22827;53.108;-6.738;2024-02-23T03:16:53;97006.86;;;0.99;57.34
36898;BME280;22827;53.108;-6.738;2024-02-23T03:19:20;97004.15;;;0.47;57.24
36898;BME280;22827;53.108;-6.738;2024-02-23T03:21:47;97003.04;;;0.68;57.01
36898;BME280;22827;53.108;-6.738;2024-02-23T03:24:14;97001.43;;;0.52;58.12
36898;BME280;22827;53.108;-6.738;2024-02-23T03:26:42;97001.69;;;0.47;57.91
36898;BME280;22827;53.108;-6.738;2024-02-23T03:29:09;97001.16;;;0.92;57.84
36898;BME280;22827;53.108;-6.738;2024-02-23T03:31:37;97000.08;;;1.29;57.11
36898;BME280;22827;53.108;-6.738;2024-02-23T03:34:05;97000.37;;;-0.14;57.94
36898;BME280;22827;53.108;-6.738;2024-02-23T03:36:31;97000.10;;;1.09;57.47
36898;BME280;22827;53.108;-6.738;2024-02-23T03:38:59;97000.86;;;1.17;57.02
36898;BME280;22827;53.108;-6.738;2024-02-23T03:41:26;97003.04;;;1.07;57.84
36898;BME280;22827;53.108;-6.738;2024-02-23T03:43:53;97001.29;;;1.05;57.19
36898;BME280;22827;53.108;-6.738;2024-02-23T03:46:20;97005.55;;;1.29;56.65
36898;BME280;22827;53.108;-6.738;2024-02-23T03:48:47;97001.23;;;1.68;57.26
36898;BME280;22827;53.108;-6.738;2024-02-23T03:51:14;97004.21;;;0.70;57.63
36898;BME280;22827;53.108;-6.738;2024-02-23T03:53:41;97001.56;;;-0.15;58.55
36898;BME280;22827;53.108;-6.738;2024-02-23T03:56:08;96998.58;;;1.09;58.58
36898;BME280;22827;53.108;-6.738;2024-02-23T03:58:35;96997.57;;;0.84;57.22
36898;BME280;22827;53.108;-6.738;2024-02-23T04:01:02;96999.85;;;1.57;55.99
36898;BME280;22827;53.108;-6.738;2024-02-23T04:03:29;96996.26;;;1.98;54.69
36898;BME280;22827;53.108;-6.738;2024-02-23T04:05:56;96990.99;;;1.43;56.35
36898;BME280;22827;53.108;-6.738;2024-02-23T04:08:23;96988.47;;;0.86;55.15
36898;BME280;22827;53.108;-6.738;2024-02-23T04:10:54;96993.74;;;1.18;55.19
36898;BME280;22827;53.108;-6.738;2024-02-23T04:13:21;96994.08;;;1.55;54.99
36898;BME280;22827;53.108;-6.738;2024-02-23T04:15:48;96993.38;;;1.56;55.12
36898;BME280;22827;53.108;-6.738;2024-02-23T04:18:15;97002.11;;;0.64;55.50
36898;BME280;22827;53.108;-6.738;2024-02-23T04:20:42;96993.14;;;1.03;56.19
36898;BME280;22827;53.108;-6.738;2024-02-23T04:23:09;96992.71;;;1.71;55.40
36898;BME280;22827;53.108;-6.738;2024-02-23T04:25:36;96992.85;;;0.77;54.56
36898;BME280;22827;53.108;-6.738;2024-02-23T04:28:03;96990.82;;;1.32;54.44
36898;BME280;22827;53.108;-6.738;2024-02-23T04:30:31;96990.11;;;1.03;54.67
36898;BME280;22827;53.108;-6.738;2024-02-23T04:32:58;96987.54;;;0.46;54.97
36898;BME280;22827;53.108;-6.738;2024-02-23T04:35:25;96988.47;;;0.68;55.37
36898;BME280;22827;53.108;-6.738;2024-02-23T04:37:52;96983.69;;;1.20;54.92
36898;BME280;22827;53.108;-6.738;2024-02-23T04:40:19;96989.47;;;0.96;55.00
36898;BME280;22827;53.108;-6.738;2024-02-23T04:42:46;96993.34;;;0.17;55.87
36898;BME280;22827;53.108;-6.738;2024-02-23T04:45:13;96995.70;;;0.82;55.25
36898;BME280;22827;53.108;-6.738;2024-02-23T04:47:40;96998.56;;;1.01;55.54
36898;BME280;22827;53.108;-6.738;2024-02-23T04:50:08;97000.52;;;1.75;54.27
36898;BME280;22827;53.108;-6.738;2024-02-23T04:52:36;97000.25;;;0.71;55.41
36898;BME280;22827;53.108;-6.738;2024-02-23T04:55:03;96998.10;;;1.46;55.39
36898;BME280;22827;53.108;-6.738;2024-02-23T04:57:31;97000.72;;;1.44;54.56
36898;BME280;22827;53.108;-6.738;2024-02-23T04:59:58;96998.94;;;1.39;54.95
36898;BME280;22827;53.108;-6.738;2024-02-23T05:02:25;97002.56;;;1.07;55.23
36898;BME280;22827;53.108;-6.738;2024-02-23T05:04:53;97007.18;;;0.40;55.41
36898;BME280;22827;53.108;-6.738;2024-02-23T05:07:19;96996.96;;;1.13;55.21
36898;BME280;22827;53.108;-6.738;2024-02-23T05:09:46;97001.77;;;0.76;54.75
36898;BME280;22827;53.108;-6.738;2024-02-23T05:12:14;97003.21;;;0.57;55.72
36898;BME280;22827;53.108;-6.738;2024-02-23T05:14:41;96996.19;;;0.62;55.08
36898;BME280;22827;53.108;-6.738;2024-02-23T05:17:08;96997.32;;;0.82;55.27
36898;BME280;22827;53.108;-6.738;2024-02-23T05:19:35;96999.88;;;-0.20;55.04
36898;BME280;22827;53.108;-6.738;2024-02-23T05:22:02;96991.77;;;1.08;54.88
36898;BME280;22827;53.108;-6.738;2024-02-23T05:24:29;96992.79;;;0.81;54.12
36898;BME280;22827;53.108;-6.738;2024-02-23T05:26:56;96995.83;;;0.65;54.59
36898;BME280;22827;53.108;-6.738;2024-02-23T05:29:23;96998.05;;;1.22;54.09
36898;BME280;22827;53.108;-6.738;2024-02-23T05:31:52;97005.48;;;0.05;55.60
36898;BME280;22827;53.108;-6.738;2024-02-23T05:34:20;97002.22;;;0.06;55.54
36898;BME280;22827;53.108;-6.738;2024-02-23T05:36:48;96999.32;;;0.03;55.81
36898;BME280;22827;53.108;-6.738;2024-02-23T05:39:15;97002.61;;;0.33;55.61
36898;BME280;22827;53.108;-6.738;2024-02-23T05:41:42;97008.42;;;0.18;55.21
36898;BME280;22827;53.108;-6.738;2024-02-23T05:44:09;97008.81;;;0.11;55.72
36898;BME280;22827;53.108;-6.738;2024-02-23T05:46:36;97010.10;;;-0.04;56.02
36898;BME280;22827;53.108;-6.738;2024-02-23T05:49:03;97014.74;;;-0.19;56.02
36898;BME280;22827;53.108;-6.738;2024-02-23T05:51:31;97015.97;;;-0.14;56.86
36898;BME280;22827;53.108;-6.738;2024-02-23T05:53:58;97015.35;;;-0.17;57.18
36898;BME280;22827;53.108;-6.738;2024-02-23T05:56:25;97017.96;;;-0.08;56.06
36898;BME280;22827;53.108;-6.738;2024-02-23T05:58:52;97025.02;;;0.28;56.09
36898;BME280;22827;53.108;-6.738;2024-02-23T06:01:19;97024.07;;;0.24;55.93
36898;BME280;22827;53.108;-6.738;2024-02-23T06:03:46;97025.33;;;0.07;55.71
36898;BME280;22827;53.108;-6.738;2024-02-23T06:06:13;97028.02;;;-0.43;56.77
36898;BME280;22827;53.108;-6.738;2024-02-23T06:08:40;97031.88;;;-0.31;56.21
36898;BME280;22827;53.108;-6.738;2024-02-23T06:11:09;97025.18;;;-0.57;56.41
36898;BME280;22827;53.108;-6.738;2024-02-23T06:13:36;97033.14;;;-0.20;56.55
36898;BME280;22827;53.108;-6.738;2024-02-23T06:16:04;97032.96;;;0.11;55.94
36898;BME280;22827;53.108;-6.738;2024-02-23T06:18:31;97025.67;;;0.23;56.12
36898;BME280;22827;53.108;-6.738;2024-02-23T06:20:58;97025.60;;;-0.03;56.21
36898;BME280;22827;53.108;-6.738;2024-02-23T06:23:25;97024.58;;;0.89;54.82
36898;BME280;22827;53.108;-6.738;2024-02-23T06:25:52;97018.88;;;0.47;55.50
36898;BME280;22827;53.108;-6.738;2024-02-23T06:28:20;97015.21;;;0.73;54.68
36898;BME280;22827;53.108;-6.738;2024-02-23T06:30:47;97018.42;;;0.66;54.73
36898;BME280;22827;53.108;-6.738;2024-02-23T06:33:14;97016.13;;;0.37;54.56
36898;BME280;22827;53.108;-6.738;2024-02-23T06:35:41;97021.98;;;0.46;55.07
36898;BME280;22827;53.108;-6.738;2024-02-23T06:38:08;97030.41;;;0.46;55.12
36898;BME280;22827;53.108;-6.738;2024-02-23T06:40:35;97040.60;;;0.70;54.69
36898;BME280;22827;53.108;-6.738;2024-02-23T06:43:02;97041.68;;;0.55;53.99
36898;BME280;22827;53.108;-6.738;2024-02-23T06:45:29;97039.12;;;0.60;55.44
36898;BME280;22827;53.108;-6.738;2024-02-23T06:47:56;97048.24;;;0.35;55.08
36898;BME280;22827;53.108;-6.738;2024-02-23T06:50:23;97050.25;;;0.29;55.87
36898;BME280;22827;53.108;-6.738;2024-02-23T06:52:50;97055.39;;;0.55;55.80
36898;BME280;22827;53.108;-6.738;2024-02-23T06:55:17;97059.27;;;0.67;56.15
36898;BME280;22827;53.108;-6.738;2024-02-23T06:57:44;97057.75;;;1.13;55.70
36898;BME280;22827;53.108;-6.738;2024-02-23T07:00:12;97061.22;;;1.23;55.64
36898;BME280;22827;53.108;-6.738;2024-02-23T07:02:39;97058.26;;;1.00;55.35
36898;BME280;22827;53.108;-6.738;2024-02-23T07:05:07;97062.61;;;0.65;55.37
36898;BME280;22827;53.108;-6.738;2024-02-23T07:07:35;97064.55;;;1.99;55.20
36898;BME280;22827;53.108;-6.738;2024-02-23T07:10:02;97067.61;;;2.01;55.48
36898;BME280;22827;53.108;-6.738;2024-02-23T07:12:29;97070.70;;;0.91;55.39
36898;BME280;22827;53.108;-6.738;2024-02-23T07:14:56;97066.55;;;1.03;55.26
36898;BME280;22827;53.108;-6.738;2024-02-23T07:17:23;97067.54;;;-0.17;57.33
36898;BME280;22827;53.108;-6.738;2024-02-23T07:19:51;97063.68;;;0.48;56.69
36898;BME280;22827;53.108;-6.738;2024-02-23T07:22:18;97063.03;;;0.47;57.22
36898;BME280;22827;53.108;-6.738;2024-02-23T07:24:45;97061.01;;;0.27;57.64
36898;BME280;22827;53.108;-6.738;2024-02-23T07:27:12;97062.57;;;0.66;57.68
36898;BME280;22827;53.108;-6.738;2024-02-23T07:29:39;97064.52;;;0.45;57.82
36898;BME280;22827;53.108;-6.738;2024-02-23T07:32:06;97061.35;;;0.64;57.42
36898;BME280;22827;53.108;-6.738;2024-02-23T07:34:33;97058.11;;;1.05;56.48
36898;BME280;22827;53.108;-6.738;2024-02-23T07:37:00;97056.87;;;0.58;58.09
36898;BME280;22827;53.108;-6.738;2024-02-23T07:39:27;97060.76;;;0.58;57.50
36898;BME280;22827;53.108;-6.738;2024-02-23T07:41:54;97063.89;;;0.43;57.23
36898;BME280;22827;53.108;-6.738;2024-02-23T07:44:21;97062.60;;;0.30;56.64
36898;BME280;22827;53.108;-6.738;2024-02-23T07:46:48;97064.23;;;-0.94;58.76
36898;BME280;22827;53.108;-6.738;2024-02-23T07:49:15;97066.98;;;0.12;57.86
36898;BME280;22827;53.108;-6.738;2024-02-23T07:51:42;97065.82;;;0.39;58.31
36898;BME280;22827;53.108;-6.738;2024-02-23T07:54:09;97065.59;;;0.12;58.56
36898;BME280;22827;53.108;-6.738;2024-02-23T07:56:36;97066.87;;;0.90;58.40
36898;BME280;22827;53.108;-6.738;2024-02-23T07:59:03;97066.32;;;0.64;58.17
36898;BME280;22827;53.108;-6.738;2024-02-23T08:01:30;97067.08;;;1.26;58.42
36898;BME280;22827;53.108;-6.738;2024-02-23T08:03:57;97066.60;;;0.99;57.22
36898;BME280;22827;53.108;-6.738;2024-02-23T08:06:25;97067.97;;;1.29;56.94
36898;BME280;22827;53.108;-6.738;2024-02-23T08:08:51;97070.09;;;1.91;56.81
36898;BME280;22827;53.108;-6.738;2024-02-23T08:11:19;97071.86;;;1.70;56.87
36898;BME280;22827;53.108;-6.738;2024-02-23T08:13:46;97072.65;;;1.67;57.18
36898;BME280;22827;53.108;-6.738;2024-02-23T08:16:13;97076.20;;;1.52;56.93
36898;BME280;22827;53.108;-6.738;2024-02-23T08:18:42;97079.25;;;1.41;56.39
36898;BME280;22827;53.108;-6.738;2024-02-23T08:21:10;97080.13;;;1.71;56.94
36898;BME280;22827;53.108;-6.738;2024-02-23T08:23:37;97078.54;;;1.42;56.93
36898;BME280;22827;53.108;-6.738;2024-02-23T08:26:04;97078.88;;;1.36;57.38
36898;BME280;22827;53.108;-6.738;2024-02-23T08:28:31;97078.59;;;1.74;56.69
36898;BME280;22827;53.108;-6.738;2024-02-23T08:30:58;97076.86;;;1.90;56.93
36898;BME280;22827;53.108;-6.738;2024-02-23T08:33:25;97075.42;;;2.09;56.14
36898;BME280;22827;53.108;-6.738;2024-02-23T08:35:52;97078.51;;;0.89;56.99
36898;BME280;22827;53.108;-6.738;2024-02-23T08:38:19;97078.50;;;1.27;56.91
36898;BME280;22827;53.108;-6.738;2024-02-23T08:40:46;97079.15;;;1.49;56.09
36898;BME280;22827;53.108;-6.738;2024-02-23T08:43:13;97084.33;;;0.82;56.66
36898;BME280;22827;53.108;-6.738;2024-02-23T08:45:40;97082.91;;;1.69;56.72
36898;BME280;22827;53.108;-6.738;2024-02-23T08:48:07;97086.65;;;1.46;55.94
36898;BME280;22827;53.108;-6.738;2024-02-23T08:50:34;97085.04;;;2.06;55.83
36898;BME280;22827;53.108;-6.738;2024-02-23T08:53:02;97088.97;;;2.44;56.66
36898;BME280;22827;53.108;-6.738;2024-02-23T08:55:29;97096.89;;;2.27;56.50
36898;BME280;22827;53.108;-6.738;2024-02-23T08:57:56;97102.20;;;1.94;55.82
36898;BME280;22827;53.108;-6.738;2024-02-23T09:00:23;97111.52;;;2.00;57.05
36898;BME280;22827;53.108;-6.738;2024-02-23T09:02:50;97113.55;;;1.65;57.09
36898;BME280;22827;53.108;-6.738;2024-02-23T09:05:17;97119.25;;;1.23;56.18
36898;BME280;22827;53.108;-6.738;2024-02-23T09:07:44;97114.93;;;2.54;56.52
36898;BME280;22827;53.108;-6.738;2024-02-23T09:10:11;97120.66;;;1.32;57.20
36898;BME280;22827;53.108;-6.738;2024-02-23T09:12:38;97123.90;;;1.60;56.84
36898;BME280;22827;53.108;-6.738;2024-02-23T09:15:06;97116.66;;;2.03;56.71
36898;BME280;22827;53.108;-6.738;2024-02-23T09:17:33;97123.70;;;1.85;56.99
36898;BME280;22827;53.108;-6.738;2024-02-23T09:20:00;97117.40;;;1.78;57.07
36898;BME280;22827;53.108;-6.738;2024-02-23T09:22:27;97111.54;;;2.38;55.47
36898;BME280;22827;53.108;-6.738;2024-02-23T09:24:54;97116.33;;;1.45;56.00
36898;BME280;22827;53.108;-6.738;2024-02-23T09:27:21;97117.79;;;1.41;57.37
36898;BME280;22827;53.108;-6.738;2024-02-23T09:29:48;97110.29;;;1.70;56.95
36898;BME280;22827;53.108;-6.738;2024-02-23T09:32:15;97111.03;;;1.55;56.82
36898;BME280;22827;53.108;-6.738;2024-02-23T09:34:42;97109.93;;;1.60;56.99
36898;BME280;22827;53.108;-6.738;2024-02-23T09:37:09;97111.20;;;2.31;56.91
36898;BME280;22827;53.108;-6.738;2024-02-23T09:39:36;97114.15;;;2.04;57.01
36898;BME280;22827;53.108;-6.738;2024-02-23T09:42:06;97112.74;;;2.17;57.79
36898;BME280;22827;53.108;-6.738;2024-02-23T09:44:36;97116.03;;;3.10;56.31
36898;BME280;22827;53.108;-6.738;2024-02-23T09:47:04;97120.93;;;2.45;58.02
36898;BME280;22827;53.108;-6.738;2024-02-23T09:49:31;97123.89;;;3.10;56.29
36898;BME280;22827;53.108;-6.738;2024-02-23T09:51:58;97122.94;;;3.12;56.42
36898;BME280;22827;53.108;-6.738;2024-02-23T09:54:26;97123.77;;;2.89;55.88
36898;BME280;22827;53.108;-6.738;2024-02-23T09:56:53;97125.15;;;2.54;56.15
36898;BME280;22827;53.108;-6.738;2024-02-23T09:59:20;97127.71;;;2.03;56.79
36898;BME280;22827;53.108;-6.738;2024-02-23T10:01:47;97133.59;;;3.37;56.39
36898;BME280;22827;53.108;-6.738;2024-02-23T10:04:14;97135.14;;;2.83;56.15
36898;BME280;22827;53.108;-6.738;2024-02-23T10:06:42;97138.29;;;2.79;56.14
36898;BME280;22827;53.108;-6.738;2024-02-23T10:09:09;97138.27;;;2.88;55.46
36898;BME280;22827;53.108;-6.738;2024-02-23T10:11:36;97138.05;;;4.01;55.28
36898;BME280;22827;53.108;-6.738;2024-02-23T10:14:03;97135.62;;;3.45;55.20
36898;BME280;22827;53.108;-6.738;2024-02-23T10:16:30;97137.97;;;3.82;55.23
36898;BME280;22827;53.108;-6.738;2024-02-23T10:18:57;97143.67;;;3.68;54.75
36898;BME280;22827;53.108;-6.738;2024-02-23T10:21:25;97144.95;;;3.87;55.51
36898;BME280;22827;53.108;-6.738;2024-02-23T10:23:52;97143.37;;;3.60;54.56
36898;BME280;22827;53.108;-6.738;2024-02-23T10:26:19;97149.07;;;4.07;54.28
36898;BME280;22827;53.108;-6.738;2024-02-23T10:28:46;97154.18;;;3.52;54.70
36898;BME280;22827;53.108;-6.738;2024-02-23T10:31:13;97157.36;;;3.39;55.58
36898;BME280;22827;53.108;-6.738;2024-02-23T10:33:40;97161.39;;;2.83;55.30
36898;BME280;22827;53.108;-6.738;2024-02-23T10:36:08;97160.20;;;2.30;56.46
36898;BME280;22827;53.108;-6.738;2024-02-23T10:38:37;97158.42;;;2.29;57.56
36898;BME280;22827;53.108;-6.738;2024-02-23T10:41:05;97162.54;;;2.81;56.73
36898;BME280;22827;53.108;-6.738;2024-02-23T10:43:39;97162.61;;;2.88;57.21
36898;BME280;22827;53.108;-6.738;2024-02-23T10:46:09;97164.88;;;3.51;56.35
36898;BME280;22827;53.108;-6.738;2024-02-23T10:48:36;97163.59;;;3.62;55.39
36898;BME280;22827;53.108;-6.738;2024-02-23T10:51:07;97168.17;;;4.02;54.93
36898;BME280;22827;53.108;-6.738;2024-02-23T10:53:34;97172.77;;;3.32;54.58
36898;BME280;22827;53.108;-6.738;2024-02-23T10:56:03;97174.73;;;2.86;55.73
36898;BME280;22827;53.108;-6.738;2024-02-23T10:58:31;97180.41;;;2.75;56.66
36898;BME280;22827;53.108;-6.738;2024-02-23T11:00:59;97183.56;;;3.22;55.33
36898;BME280;22827;53.108;-6.738;2024-02-23T11:03:27;97182.42;;;3.04;55.32
36898;BME280;22827;53.108;-6.738;2024-02-23T11:05:55;97181.47;;;3.95;54.63
36898;BME280;22827;53.108;-6.738;2024-02-23T11:08:22;97183.73;;;3.54;54.77
36898;BME280;22827;53.108;-6.738;2024-02-23T11:10:50;97182.84;;;3.29;55.55
36898;BME280;22827;53.108;-6.738;2024-02-23T11:13:18;97187.32;;;1.63;58.14
36898;BME280;22827;53.108;-6.738;2024-02-23T11:15:45;97193.18;;;1.45;60.35
36898;BME280;22827;53.108;-6.738;2024-02-23T11:18:28;97190.96;;;1.88;59.79
36898;BME280;22827;53.108;-6.738;2024-02-23T11:20:55;97187.11;;;2.40;59.72
36898;BME280;22827;53.108;-6.738;2024-02-23T11:23:23;97195.40;;;1.99;58.62
36898;BME280;22827;53.108;-6.738;2024-02-23T11:26:06;97195.86;;;2.51;58.05
36898;BME280;22827;53.108;-6.738;2024-02-23T11:28:33;97209.91;;;1.70;58.71
36898;BME280;22827;53.108;-6.738;2024-02-23T11:31:00;97215.45;;;1.99;60.03
36898;BME280;22827;53.108;-6.738;2024-02-23T11:33:27;97216.48;;;2.48;60.11
36898;BME280;22827;53.108;-6.738;2024-02-23T11:36:04;97218.15;;;2.91;58.77
36898;BME280;22827;53.108;-6.738;2024-02-23T11:38:32;97218.82;;;2.90;57.81
36898;BME280;22827;53.108;-6.738;2024-02-23T11:41:00;97223.72;;;3.81;57.43
36898;BME280;22827;53.108;-6.738;2024-02-23T11:43:27;97225.09;;;3.21;56.58
36898;BME280;22827;53.108;-6.738;2024-02-23T11:45:54;97227.54;;;3.97;54.67
36898;BME280;22827;53.108;-6.738;2024-02-23T11:48:21;97218.70;;;3.66;54.65
36898;BME280;22827;53.108;-6.738;2024-02-23T11:50:49;97224.17;;;4.09;54.62
36898;BME280;22827;53.108;-6.738;2024-02-23T11:53:17;97222.94;;;3.91;54.58
36898;BME280;22827;53.108;-6.738;2024-02-23T11:55:45;97217.20;;;4.42;53.77
36898;BME280;22827;53.108;-6.738;2024-02-23T11:58:12;97210.62;;;5.13;52.43
36898;BME280;22827;53.108;-6.738;2024-02-23T12:00:39;97215.89;;;4.84;52.59
36898;BME280;22827;53.108;-6.738;2024-02-23T12:03:07;97211.22;;;4.77;52.12
36898;BME280;22827;53.108;-6.738;2024-02-23T12:05:34;97211.10;;;4.86;51.82
36898;BME280;22827;53.108;-6.738;2024-02-23T12:08:01;97209.02;;;5.38;51.67
36898;BME280;22827;53.108;-6.738;2024-02-23T12:10:29;97200.68;;;4.54;52.02
36898;BME280;22827;53.108;-6.738;2024-02-23T12:12:56;97210.07;;;3.90;53.89
36898;BME280;22827;53.108;-6.738;2024-02-23T12:15:25;97207.61;;;3.26;56.18
36898;BME280;22827;53.108;-6.738;2024-02-23T12:17:52;97201.68;;;2.03;58.90
36898;BME280;22827;53.108;-6.738;2024-02-23T12:20:19;97199.18;;;1.53;59.32
36898;BME280;22827;53.108;-6.738;2024-02-23T12:22:47;97201.00;;;1.70;60.49
36898;BME280;22827;53.108;-6.738;2024-02-23T12:25:15;97201.45;;;2.32;59.81
36898;BME280;22827;53.108;-6.738;2024-02-23T12:27:42;97196.97;;;2.48;58.65
36898;BME280;22827;53.108;-6.738;2024-02-23T12:30:14;97199.80;;;1.48;59.83
36898;BME280;22827;53.108;-6.738;2024-02-23T12:32:41;97201.11;;;0.90;62.72
36898;BME280;22827;53.108;-6.738;2024-02-23T12:35:10;97197.07;;;1.12;61.79
36898;BME280;22827;53.108;-6.738;2024-02-23T12:37:38;97195.67;;;2.19;61.18
36898;BME280;22827;53.108;-6.738;2024-02-23T12:40:06;97198.85;;;2.41;60.42
36898;BME280;22827;53.108;-6.738;2024-02-23T12:42:34;97202.76;;;2.11;60.62
36898;BME280;22827;53.108;-6.738;2024-02-23T12:45:00;97201.30;;;2.18;58.80
36898;BME280;22827;53.108;-6.738;2024-02-23T12:47:27;97203.07;;;2.14;57.67
36898;BME280;22827;53.108;-6.738;2024-02-23T12:49:54;97205.96;;;2.68;57.22
36898;BME280;22827;53.108;-6.738;2024-02-23T12:52:21;97202.63;;;2.59;57.90
36898;BME280;22827;53.108;-6.738;2024-02-23T12:54:48;97201.03;;;2.86;56.07
36898;BME280;22827;53.108;-6.738;2024-02-23T12:57:15;97197.86;;;2.02;55.54
36898;BME280;22827;53.108;-6.738;2024-02-23T12:59:42;97200.03;;;1.59;56.52